sensor_id;sensor_type;location;lat;lon;timestamp;P1;durP1;ratioP1;P2;durP2;ratioP2
22814;SDS011;11574;51.058;13.712;2022-12-10T00:00:22;52.00;;;23.90;;
22814;SDS011;11574;51.058;13.712;2022-12-10T00:05:26;50.03;;;22.13;;
22814;SDS011;11574;51.058;13.712;2022-12-10T00:10:28;46.43;;;22.23;;
22814;SDS011;11574;51.058;13.712;2022-12-10T00:15:33;52.20;;;23.10;;
22814;SDS011;11574;51.058;13.712;2022-12-10T00:20:37;49.73;;;23.37;;
22814;SDS011;11574;51.058;13.712;2022-12-10T00:25:40;45.50;;;20.67;;
22814;SDS011;11574;51.058;13.712;2022-12-10T00:30:42;48.87;;;21.70;;
22814;SDS011;11574;51.058;13.712;2022-12-10T00:35:46;49.03;;;22.03;;
22814;SDS011;11574;51.058;13.712;2022-12-10T00:40:49;50.63;;;21.43;;
22814;SDS011;11574;51.058;13.712;2022-12-10T00:45:52;46.87;;;21.33;;
22814;SDS011;11574;51.058;13.712;2022-12-10T00:50:57;46.20;;;21.70;;
22814;SDS011;11574;51.058;13.712;2022-12-10T00:56:00;47.30;;;21.70;;
22814;SDS011;11574;51.058;13.712;2022-12-10T01:01:07;50.57;;;21.47;;
22814;SDS011;11574;51.058;13.712;2022-12-10T01:06:12;47.77;;;22.20;;
22814;SDS011;11574;51.058;13.712;2022-12-10T01:11:15;53.70;;;22.40;;
22814;SDS011;11574;51.058;13.712;2022-12-10T01:16:18;49.73;;;21.43;;
22814;SDS011;11574;51.058;13.712;2022-12-10T01:21:23;47.80;;;21.63;;
22814;SDS011;11574;51.058;13.712;2022-12-10T01:26:26;45.33;;;21.93;;
22814;SDS011;11574;51.058;13.712;2022-12-10T01:31:30;50.93;;;21.57;;
22814;SDS011;11574;51.058;13.712;2022-12-10T01:36:34;52.13;;;23.20;;
22814;SDS011;11574;51.058;13.712;2022-12-10T01:41:38;47.80;;;22.13;;
22814;SDS011;11574;51.058;13.712;2022-12-10T01:46:42;49.30;;;22.50;;
22814;SDS011;11574;51.058;13.712;2022-12-10T01:51:47;55.17;;;23.43;;
22814;SDS011;11574;51.058;13.712;2022-12-10T01:56:50;51.33;;;22.00;;
22814;SDS011;11574;51.058;13.712;2022-12-10T02:01:58;48.03;;;22.17;;
22814;SDS011;11574;51.058;13.712;2022-12-10T02:07:05;45.90;;;22.33;;
22814;SDS011;11574;51.058;13.712;2022-12-10T02:12:10;46.33;;;19.70;;
22814;SDS011;11574;51.058;13.712;2022-12-10T02:17:16;43.80;;;20.33;;
22814;SDS011;11574;51.058;13.712;2022-12-10T02:22:21;50.50;;;22.33;;
22814;SDS011;11574;51.058;13.712;2022-12-10T02:27:28;42.40;;;20.00;;
22814;SDS011;11574;51.058;13.712;2022-12-10T02:32:35;41.70;;;19.20;;
22814;SDS011;11574;51.058;13.712;2022-12-10T02:37:40;44.90;;;20.10;;
22814;SDS011;11574;51.058;13.712;2022-12-10T02:42:43;41.27;;;18.90;;
22814;SDS011;11574;51.058;13.712;2022-12-10T02:47:48;42.63;;;17.73;;
22814;SDS011;11574;51.058;13.712;2022-12-10T02:52:51;38.10;;;17.97;;
22814;SDS011;11574;51.058;13.712;2022-12-10T02:58:02;43.13;;;18.83;;
22814;SDS011;11574;51.058;13.712;2022-12-10T03:03:11;37.67;;;17.70;;
22814;SDS011;11574;51.058;13.712;2022-12-10T03:08:18;43.00;;;18.13;;
22814;SDS011;11574;51.058;13.712;2022-12-10T03:13:27;37.70;;;18.63;;
22814;SDS011;11574;51.058;13.712;2022-12-10T03:18:34;37.20;;;17.43;;
22814;SDS011;11574;51.058;13.712;2022-12-10T03:23:38;45.87;;;19.13;;
22814;SDS011;11574;51.058;13.712;2022-12-10T03:28:42;42.60;;;19.43;;
22814;SDS011;11574;51.058;13.712;2022-12-10T03:33:48;42.87;;;19.80;;
22814;SDS011;11574;51.058;13.712;2022-12-10T03:38:50;43.23;;;20.43;;
22814;SDS011;11574;51.058;13.712;2022-12-10T03:43:54;43.17;;;19.40;;
22814;SDS011;11574;51.058;13.712;2022-12-10T03:48:58;40.73;;;19.70;;
22814;SDS011;11574;51.058;13.712;2022-12-10T03:54:00;43.87;;;21.03;;
22814;SDS011;11574;51.058;13.712;2022-12-10T03:59:04;40.73;;;19.17;;
22814;SDS011;11574;51.058;13.712;2022-12-10T04:04:07;44.20;;;20.70;;
22814;SDS011;11574;51.058;13.712;2022-12-10T04:09:10;45.40;;;19.67;;
22814;SDS011;11574;51.058;13.712;2022-12-10T04:14:12;42.87;;;19.70;;
22814;SDS011;11574;51.058;13.712;2022-12-10T04:19:34;40.27;;;19.53;;
22814;SDS011;11574;51.058;13.712;2022-12-10T04:24:36;38.23;;;19.10;;
22814;SDS011;11574;51.058;13.712;2022-12-10T04:29:57;38.87;;;18.37;;
22814;SDS011;11574;51.058;13.712;2022-12-10T04:35:00;40.53;;;18.27;;
22814;SDS011;11574;51.058;13.712;2022-12-10T04:40:03;37.67;;;18.20;;
22814;SDS011;11574;51.058;13.712;2022-12-10T04:45:06;38.27;;;17.27;;
22814;SDS011;11574;51.058;13.712;2022-12-10T04:50:10;34.60;;;17.50;;
22814;SDS011;11574;51.058;13.712;2022-12-10T04:55:12;37.43;;;16.93;;
22814;SDS011;11574;51.058;13.712;2022-12-10T05:00:17;36.17;;;16.27;;
22814;SDS011;11574;51.058;13.712;2022-12-10T05:05:20;33.97;;;17.63;;
22814;SDS011;11574;51.058;13.712;2022-12-10T05:10:22;39.97;;;18.10;;
22814;SDS011;11574;51.058;13.712;2022-12-10T05:15:25;38.90;;;18.03;;
22814;SDS011;11574;51.058;13.712;2022-12-10T05:20:28;40.20;;;17.50;;
22814;SDS011;11574;51.058;13.712;2022-12-10T05:25:31;40.17;;;18.20;;
22814;SDS011;11574;51.058;13.712;2022-12-10T05:30:52;39.47;;;17.57;;
22814;SDS011;11574;51.058;13.712;2022-12-10T05:35:56;35.90;;;16.97;;
22814;SDS011;11574;51.058;13.712;2022-12-10T05:41:02;39.47;;;16.50;;
22814;SDS011;11574;51.058;13.712;2022-12-10T05:46:05;34.77;;;16.53;;
22814;SDS011;11574;51.058;13.712;2022-12-10T05:51:12;36.40;;;16.93;;
22814;SDS011;11574;51.058;13.712;2022-12-10T05:56:15;34.67;;;16.83;;
22814;SDS011;11574;51.058;13.712;2022-12-10T06:01:21;42.03;;;18.13;;
22814;SDS011;11574;51.058;13.712;2022-12-10T06:06:25;40.77;;;16.27;;
22814;SDS011;11574;51.058;13.712;2022-12-10T06:11:28;37.10;;;17.80;;
22814;SDS011;11574;51.058;13.712;2022-12-10T06:16:32;39.17;;;16.63;;
22814;SDS011;11574;51.058;13.712;2022-12-10T06:21:36;43.63;;;17.30;;
22814;SDS011;11574;51.058;13.712;2022-12-10T06:26:39;36.03;;;16.50;;
22814;SDS011;11574;51.058;13.712;2022-12-10T06:31:41;40.47;;;17.43;;
22814;SDS011;11574;51.058;13.712;2022-12-10T06:36:44;38.87;;;16.70;;
22814;SDS011;11574;51.058;13.712;2022-12-10T06:41:47;35.20;;;17.10;;
22814;SDS011;11574;51.058;13.712;2022-12-10T06:46:49;37.57;;;17.50;;
22814;SDS011;11574;51.058;13.712;2022-12-10T06:51:53;41.57;;;17.33;;
22814;SDS011;11574;51.058;13.712;2022-12-10T06:56:55;38.20;;;16.63;;
22814;SDS011;11574;51.058;13.712;2022-12-10T07:01:57;36.93;;;17.37;;
22814;SDS011;11574;51.058;13.712;2022-12-10T07:07:06;40.40;;;19.07;;
22814;SDS011;11574;51.058;13.712;2022-12-10T07:12:08;40.20;;;18.03;;
22814;SDS011;11574;51.058;13.712;2022-12-10T07:17:10;39.43;;;17.77;;
22814;SDS011;11574;51.058;13.712;2022-12-10T07:22:14;41.43;;;18.47;;
22814;SDS011;11574;51.058;13.712;2022-12-10T07:27:16;37.50;;;18.40;;
22814;SDS011;11574;51.058;13.712;2022-12-10T07:32:20;43.73;;;19.17;;
22814;SDS011;11574;51.058;13.712;2022-12-10T07:37:24;40.97;;;18.97;;
22814;SDS011;11574;51.058;13.712;2022-12-10T07:42:26;38.30;;;17.50;;
22814;SDS011;11574;51.058;13.712;2022-12-10T07:47:28;40.47;;;17.50;;
22814;SDS011;11574;51.058;13.712;2022-12-10T07:52:34;40.13;;;17.60;;
22814;SDS011;11574;51.058;13.712;2022-12-10T07:57:36;40.83;;;18.50;;
22814;SDS011;11574;51.058;13.712;2022-12-10T08:02:38;47.50;;;19.33;;
22814;SDS011;11574;51.058;13.712;2022-12-10T08:07:43;43.20;;;19.40;;
22814;SDS011;11574;51.058;13.712;2022-12-10T08:12:46;43.17;;;19.00;;
22814;SDS011;11574;51.058;13.712;2022-12-10T08:17:48;54.07;;;22.70;;
22814;SDS011;11574;51.058;13.712;2022-12-10T08:22:53;42.13;;;19.13;;
22814;SDS011;11574;51.058;13.712;2022-12-10T08:27:55;43.70;;;19.03;;
22814;SDS011;11574;51.058;13.712;2022-12-10T08:33:00;47.00;;;19.33;;
22814;SDS011;11574;51.058;13.712;2022-12-10T08:38:03;45.10;;;20.00;;
22814;SDS011;11574;51.058;13.712;2022-12-10T08:43:07;41.90;;;19.80;;
22814;SDS011;11574;51.058;13.712;2022-12-10T08:48:10;43.17;;;18.93;;
22814;SDS011;11574;51.058;13.712;2022-12-10T08:53:14;41.27;;;19.03;;
22814;SDS011;11574;51.058;13.712;2022-12-10T08:58:16;43.77;;;18.43;;
22814;SDS011;11574;51.058;13.712;2022-12-10T09:03:19;40.03;;;17.80;;
22814;SDS011;11574;51.058;13.712;2022-12-10T09:08:22;50.77;;;19.47;;
22814;SDS011;11574;51.058;13.712;2022-12-10T09:13:25;40.53;;;19.17;;
22814;SDS011;11574;51.058;13.712;2022-12-10T09:18:27;40.70;;;18.57;;
22814;SDS011;11574;51.058;13.712;2022-12-10T09:23:30;40.77;;;18.23;;
22814;SDS011;11574;51.058;13.712;2022-12-10T09:28:33;43.73;;;18.73;;
22814;SDS011;11574;51.058;13.712;2022-12-10T09:33:35;46.43;;;18.67;;
22814;SDS011;11574;51.058;13.712;2022-12-10T09:38:40;48.60;;;19.13;;
22814;SDS011;11574;51.058;13.712;2022-12-10T09:43:44;45.57;;;18.97;;
22814;SDS011;11574;51.058;13.712;2022-12-10T09:48:50;42.53;;;19.97;;
22814;SDS011;11574;51.058;13.712;2022-12-10T09:53:57;45.77;;;21.03;;
22814;SDS011;11574;51.058;13.712;2022-12-10T09:59:03;42.63;;;19.60;;
22814;SDS011;11574;51.058;13.712;2022-12-10T10:04:08;42.97;;;19.60;;
22814;SDS011;11574;51.058;13.712;2022-12-10T10:09:13;41.80;;;19.17;;
22814;SDS011;11574;51.058;13.712;2022-12-10T10:14:18;40.50;;;19.43;;
22814;SDS011;11574;51.058;13.712;2022-12-10T10:19:23;37.33;;;18.27;;
22814;SDS011;11574;51.058;13.712;2022-12-10T10:24:33;44.80;;;20.47;;
22814;SDS011;11574;51.058;13.712;2022-12-10T10:29:35;37.07;;;18.03;;
22814;SDS011;11574;51.058;13.712;2022-12-10T10:34:38;37.63;;;19.10;;
22814;SDS011;11574;51.058;13.712;2022-12-10T10:39:42;43.67;;;19.63;;
22814;SDS011;11574;51.058;13.712;2022-12-10T10:44:48;39.47;;;18.13;;
22814;SDS011;11574;51.058;13.712;2022-12-10T10:49:50;36.60;;;17.67;;
22814;SDS011;11574;51.058;13.712;2022-12-10T10:54:54;33.00;;;16.63;;
22814;SDS011;11574;51.058;13.712;2022-12-10T11:00:00;35.77;;;16.27;;
22814;SDS011;11574;51.058;13.712;2022-12-10T11:05:04;37.47;;;17.83;;
22814;SDS011;11574;51.058;13.712;2022-12-10T11:10:16;33.70;;;15.37;;
22814;SDS011;11574;51.058;13.712;2022-12-10T11:15:31;31.53;;;15.37;;
22814;SDS011;11574;51.058;13.712;2022-12-10T11:20:34;26.03;;;14.53;;
22814;SDS011;11574;51.058;13.712;2022-12-10T11:25:41;26.37;;;14.50;;
22814;SDS011;11574;51.058;13.712;2022-12-10T11:30:51;29.23;;;15.13;;
22814;SDS011;11574;51.058;13.712;2022-12-10T11:35:58;25.67;;;14.20;;
22814;SDS011;11574;51.058;13.712;2022-12-10T11:41:07;25.37;;;14.37;;
22814;SDS011;11574;51.058;13.712;2022-12-10T11:46:19;24.63;;;14.53;;
22814;SDS011;11574;51.058;13.712;2022-12-10T11:51:26;27.67;;;14.50;;
22814;SDS011;11574;51.058;13.712;2022-12-10T11:56:33;26.23;;;14.07;;
22814;SDS011;11574;51.058;13.712;2022-12-10T12:01:49;27.47;;;14.37;;
22814;SDS011;11574;51.058;13.712;2022-12-10T12:07:02;26.50;;;14.37;;
22814;SDS011;11574;51.058;13.712;2022-12-10T12:12:13;27.97;;;14.60;;
22814;SDS011;11574;51.058;13.712;2022-12-10T12:17:20;29.77;;;15.43;;
22814;SDS011;11574;51.058;13.712;2022-12-10T12:22:25;28.40;;;14.83;;
22814;SDS011;11574;51.058;13.712;2022-12-10T12:27:30;26.37;;;14.40;;
22814;SDS011;11574;51.058;13.712;2022-12-10T12:32:40;28.00;;;14.90;;
22814;SDS011;11574;51.058;13.712;2022-12-10T12:37:50;32.33;;;15.60;;
22814;SDS011;11574;51.058;13.712;2022-12-10T12:42:56;27.50;;;13.83;;
22814;SDS011;11574;51.058;13.712;2022-12-10T12:48:01;26.93;;;14.40;;
22814;SDS011;11574;51.058;13.712;2022-12-10T12:53:07;24.63;;;13.90;;
22814;SDS011;11574;51.058;13.712;2022-12-10T12:58:15;30.97;;;14.57;;
22814;SDS011;11574;51.058;13.712;2022-12-10T13:03:21;27.80;;;13.93;;
22814;SDS011;11574;51.058;13.712;2022-12-10T13:08:29;28.57;;;14.33;;
22814;SDS011;11574;51.058;13.712;2022-12-10T13:13:33;26.80;;;13.37;;
22814;SDS011;11574;51.058;13.712;2022-12-10T13:18:37;30.27;;;15.23;;
22814;SDS011;11574;51.058;13.712;2022-12-10T13:23:47;26.37;;;13.63;;
22814;SDS011;11574;51.058;13.712;2022-12-10T13:28:52;26.83;;;14.20;;
22814;SDS011;11574;51.058;13.712;2022-12-10T13:34:04;25.53;;;14.27;;
22814;SDS011;11574;51.058;13.712;2022-12-10T13:39:12;26.37;;;14.00;;
22814;SDS011;11574;51.058;13.712;2022-12-10T13:44:26;28.83;;;14.37;;
22814;SDS011;11574;51.058;13.712;2022-12-10T13:49:35;25.40;;;12.97;;
22814;SDS011;11574;51.058;13.712;2022-12-10T14:00:09;27.43;;;13.87;;
22814;SDS011;11574;51.058;13.712;2022-12-10T14:10:35;28.93;;;13.87;;
22814;SDS011;11574;51.058;13.712;2022-12-10T14:15:39;24.47;;;13.17;;
22814;SDS011;11574;51.058;13.712;2022-12-10T14:20:44;25.50;;;13.00;;
22814;SDS011;11574;51.058;13.712;2022-12-10T14:25:50;25.10;;;13.20;;
22814;SDS011;11574;51.058;13.712;2022-12-10T14:30:56;24.33;;;13.13;;
22814;SDS011;11574;51.058;13.712;2022-12-10T14:35:58;23.70;;;13.20;;
22814;SDS011;11574;51.058;13.712;2022-12-10T14:41:01;24.77;;;13.20;;
22814;SDS011;11574;51.058;13.712;2022-12-10T14:46:06;26.90;;;13.87;;
22814;SDS011;11574;51.058;13.712;2022-12-10T14:51:15;29.10;;;13.87;;
22814;SDS011;11574;51.058;13.712;2022-12-10T14:56:20;25.70;;;14.20;;
22814;SDS011;11574;51.058;13.712;2022-12-10T15:01:27;26.70;;;13.10;;
22814;SDS011;11574;51.058;13.712;2022-12-10T15:06:32;28.50;;;13.83;;
22814;SDS011;11574;51.058;13.712;2022-12-10T15:11:35;27.13;;;13.00;;
22814;SDS011;11574;51.058;13.712;2022-12-10T15:16:40;27.37;;;14.53;;
22814;SDS011;11574;51.058;13.712;2022-12-10T15:21:44;28.47;;;15.33;;
22814;SDS011;11574;51.058;13.712;2022-12-10T15:26:47;30.17;;;15.33;;
22814;SDS011;11574;51.058;13.712;2022-12-10T15:31:53;29.23;;;14.90;;
22814;SDS011;11574;51.058;13.712;2022-12-10T15:36:56;29.50;;;15.03;;
22814;SDS011;11574;51.058;13.712;2022-12-10T15:42:25;33.50;;;16.00;;
22814;SDS011;11574;51.058;13.712;2022-12-10T15:47:30;31.50;;;15.47;;
22814;SDS011;11574;51.058;13.712;2022-12-10T15:52:33;29.80;;;16.77;;
22814;SDS011;11574;51.058;13.712;2022-12-10T15:57:36;33.40;;;16.77;;
22814;SDS011;11574;51.058;13.712;2022-12-10T16:02:40;38.10;;;16.67;;
22814;SDS011;11574;51.058;13.712;2022-12-10T16:07:44;36.87;;;17.30;;
22814;SDS011;11574;51.058;13.712;2022-12-10T16:12:47;36.63;;;20.80;;
22814;SDS011;11574;51.058;13.712;2022-12-10T16:17:52;36.73;;;17.13;;
22814;SDS011;11574;51.058;13.712;2022-12-10T16:22:54;35.67;;;16.80;;
22814;SDS011;11574;51.058;13.712;2022-12-10T16:27:56;35.63;;;16.73;;
22814;SDS011;11574;51.058;13.712;2022-12-10T16:33:00;38.50;;;17.33;;
22814;SDS011;11574;51.058;13.712;2022-12-10T16:38:04;35.80;;;17.13;;
22814;SDS011;11574;51.058;13.712;2022-12-10T16:43:06;38.20;;;18.53;;
22814;SDS011;11574;51.058;13.712;2022-12-10T16:48:15;35.87;;;17.27;;
22814;SDS011;11574;51.058;13.712;2022-12-10T16:53:18;36.83;;;16.80;;
22814;SDS011;11574;51.058;13.712;2022-12-10T16:58:20;36.50;;;17.13;;
22814;SDS011;11574;51.058;13.712;2022-12-10T17:03:24;35.80;;;17.57;;
22814;SDS011;11574;51.058;13.712;2022-12-10T17:08:30;34.03;;;17.70;;
22814;SDS011;11574;51.058;13.712;2022-12-10T17:13:33;33.90;;;16.57;;
22814;SDS011;11574;51.058;13.712;2022-12-10T17:18:38;32.77;;;17.50;;
22814;SDS011;11574;51.058;13.712;2022-12-10T17:23:40;35.00;;;17.13;;
22814;SDS011;11574;51.058;13.712;2022-12-10T17:28:42;35.87;;;16.93;;
22814;SDS011;11574;51.058;13.712;2022-12-10T17:33:48;36.10;;;16.73;;
22814;SDS011;11574;51.058;13.712;2022-12-10T17:38:51;35.07;;;17.17;;
22814;SDS011;11574;51.058;13.712;2022-12-10T17:43:53;36.77;;;18.20;;
22814;SDS011;11574;51.058;13.712;2022-12-10T17:48:56;34.87;;;17.93;;
22814;SDS011;11574;51.058;13.712;2022-12-10T17:53:59;38.50;;;22.00;;
22814;SDS011;11574;51.058;13.712;2022-12-10T17:59:02;42.53;;;19.67;;
22814;SDS011;11574;51.058;13.712;2022-12-10T18:04:06;37.23;;;18.70;;
22814;SDS011;11574;51.058;13.712;2022-12-10T18:09:09;39.23;;;19.97;;
22814;SDS011;11574;51.058;13.712;2022-12-10T18:14:11;42.10;;;18.47;;
22814;SDS011;11574;51.058;13.712;2022-12-10T18:19:15;38.20;;;19.70;;
22814;SDS011;11574;51.058;13.712;2022-12-10T18:24:17;36.73;;;18.97;;
22814;SDS011;11574;51.058;13.712;2022-12-10T18:29:20;35.37;;;18.07;;
22814;SDS011;11574;51.058;13.712;2022-12-10T18:34:23;36.37;;;19.33;;
22814;SDS011;11574;51.058;13.712;2022-12-10T18:39:26;37.33;;;19.70;;
22814;SDS011;11574;51.058;13.712;2022-12-10T18:44:31;43.07;;;19.50;;
22814;SDS011;11574;51.058;13.712;2022-12-10T18:49:35;38.87;;;19.30;;
22814;SDS011;11574;51.058;13.712;2022-12-10T18:54:38;50.77;;;22.30;;
22814;SDS011;11574;51.058;13.712;2022-12-10T18:59:43;37.47;;;17.97;;
22814;SDS011;11574;51.058;13.712;2022-12-10T19:04:47;43.53;;;19.63;;
22814;SDS011;11574;51.058;13.712;2022-12-10T19:09:50;37.43;;;19.57;;
22814;SDS011;11574;51.058;13.712;2022-12-10T19:14:53;40.83;;;20.30;;
22814;SDS011;11574;51.058;13.712;2022-12-10T19:19:56;36.53;;;18.00;;
22814;SDS011;11574;51.058;13.712;2022-12-10T19:25:00;38.27;;;18.47;;
22814;SDS011;11574;51.058;13.712;2022-12-10T19:30:02;37.50;;;18.63;;
22814;SDS011;11574;51.058;13.712;2022-12-10T19:35:07;34.10;;;18.00;;
22814;SDS011;11574;51.058;13.712;2022-12-10T19:40:14;38.13;;;18.43;;
22814;SDS011;11574;51.058;13.712;2022-12-10T19:45:18;34.70;;;17.13;;
22814;SDS011;11574;51.058;13.712;2022-12-10T19:50:23;36.73;;;17.93;;
22814;SDS011;11574;51.058;13.712;2022-12-10T19:55:25;36.10;;;18.53;;
22814;SDS011;11574;51.058;13.712;2022-12-10T20:00:28;38.90;;;18.00;;
22814;SDS011;11574;51.058;13.712;2022-12-10T20:05:33;34.53;;;17.40;;
22814;SDS011;11574;51.058;13.712;2022-12-10T20:10:35;37.10;;;17.50;;
22814;SDS011;11574;51.058;13.712;2022-12-10T20:15:38;35.93;;;17.77;;
22814;SDS011;11574;51.058;13.712;2022-12-10T20:20:41;37.93;;;18.23;;
22814;SDS011;11574;51.058;13.712;2022-12-10T20:25:45;33.20;;;17.20;;
22814;SDS011;11574;51.058;13.712;2022-12-10T20:30:49;35.10;;;17.17;;
22814;SDS011;11574;51.058;13.712;2022-12-10T20:35:53;34.67;;;17.17;;
22814;SDS011;11574;51.058;13.712;2022-12-10T20:40:55;36.30;;;18.37;;
22814;SDS011;11574;51.058;13.712;2022-12-10T20:45:58;33.53;;;16.47;;
22814;SDS011;11574;51.058;13.712;2022-12-10T20:51:02;33.73;;;16.60;;
22814;SDS011;11574;51.058;13.712;2022-12-10T20:56:05;34.40;;;16.87;;
22814;SDS011;11574;51.058;13.712;2022-12-10T21:01:07;36.73;;;17.63;;
22814;SDS011;11574;51.058;13.712;2022-12-10T21:06:12;34.07;;;16.27;;
22814;SDS011;11574;51.058;13.712;2022-12-10T21:11:17;33.67;;;16.37;;
22814;SDS011;11574;51.058;13.712;2022-12-10T21:16:20;31.43;;;15.60;;
22814;SDS011;11574;51.058;13.712;2022-12-10T21:21:26;30.80;;;15.13;;
22814;SDS011;11574;51.058;13.712;2022-12-10T21:26:31;31.00;;;16.23;;
22814;SDS011;11574;51.058;13.712;2022-12-10T21:31:35;29.50;;;16.97;;
22814;SDS011;11574;51.058;13.712;2022-12-10T21:36:39;33.83;;;16.53;;
22814;SDS011;11574;51.058;13.712;2022-12-10T21:41:41;31.85;;;21.15;;
22814;SDS011;11574;51.058;13.712;2022-12-10T21:47:01;30.85;;;20.70;;
22814;SDS011;11574;51.058;13.712;2022-12-10T21:52:07;28.97;;;14.90;;
22814;SDS011;11574;51.058;13.712;2022-12-10T21:57:09;29.23;;;15.50;;
22814;SDS011;11574;51.058;13.712;2022-12-10T22:02:11;32.43;;;14.73;;
22814;SDS011;11574;51.058;13.712;2022-12-10T22:07:15;27.27;;;14.40;;
22814;SDS011;11574;51.058;13.712;2022-12-10T22:12:17;26.53;;;14.30;;
22814;SDS011;11574;51.058;13.712;2022-12-10T22:17:20;33.23;;;15.07;;
22814;SDS011;11574;51.058;13.712;2022-12-10T22:22:23;31.47;;;18.73;;
22814;SDS011;11574;51.058;13.712;2022-12-10T22:27:25;33.00;;;16.20;;
22814;SDS011;11574;51.058;13.712;2022-12-10T22:32:32;31.83;;;15.10;;
22814;SDS011;11574;51.058;13.712;2022-12-10T22:37:35;33.40;;;19.70;;
22814;SDS011;11574;51.058;13.712;2022-12-10T22:42:38;30.13;;;15.80;;
22814;SDS011;11574;51.058;13.712;2022-12-10T22:47:40;31.50;;;15.73;;
22814;SDS011;11574;51.058;13.712;2022-12-10T22:52:44;31.73;;;15.80;;
22814;SDS011;11574;51.058;13.712;2022-12-10T22:57:46;32.67;;;15.93;;
22814;SDS011;11574;51.058;13.712;2022-12-10T23:02:49;30.63;;;15.40;;
22814;SDS011;11574;51.058;13.712;2022-12-10T23:07:52;37.33;;;16.37;;
22814;SDS011;11574;51.058;13.712;2022-12-10T23:12:54;34.23;;;17.40;;
22814;SDS011;11574;51.058;13.712;2022-12-10T23:18:07;34.30;;;15.97;;
22814;SDS011;11574;51.058;13.712;2022-12-10T23:23:11;30.47;;;15.50;;
22814;SDS011;11574;51.058;13.712;2022-12-10T23:28:13;32.13;;;16.07;;
22814;SDS011;11574;51.058;13.712;2022-12-10T23:33:15;32.60;;;15.63;;
22814;SDS011;11574;51.058;13.712;2022-12-10T23:38:19;31.93;;;16.17;;
22814;SDS011;11574;51.058;13.712;2022-12-10T23:43:22;32.23;;;16.20;;
22814;SDS011;11574;51.058;13.712;2022-12-10T23:48:24;27.07;;;14.10;;
22814;SDS011;11574;51.058;13.712;2022-12-10T23:53:28;35.42;;;22.75;;
22814;SDS011;11574;51.058;13.712;2022-12-10T23:58:31;30.53;;;16.90;;
